createdAt,value
2018-03-28T00:00:55.585Z,8.13
2018-03-28T00:02:38.785Z,8.47
2018-03-28T00:04:21.946Z,8.27
2018-03-28T00:06:05.849Z,8.53
2018-03-28T00:07:48.981Z,8.23
2018-03-28T00:09:32.109Z,8.50
2018-03-28T00:11:15.291Z,8.43
2018-03-28T00:12:58.404Z,8.40
2018-03-28T00:14:41.535Z,11.00
2018-03-28T00:16:24.665Z,17.13
2018-03-28T00:18:07.792Z,8.33
2018-03-28T00:19:51.692Z,8.60
2018-03-28T00:21:34.848Z,8.00
2018-03-28T00:23:18.740Z,8.27
2018-03-28T00:25:01.858Z,8.93
2018-03-28T00:26:44.975Z,8.30
2018-03-28T00:28:28.120Z,17.33
2018-03-28T00:30:11.251Z,9.37
2018-03-28T00:31:55.147Z,10.03
2018-03-28T00:33:38.270Z,9.40
2018-03-28T00:35:21.367Z,9.97
2018-03-28T00:37:04.502Z,9.20
2018-03-28T00:38:48.557Z,9.77
2018-03-28T00:40:31.691Z,10.00
2018-03-28T00:42:15.591Z,13.03
2018-03-28T00:43:58.719Z,10.00
2018-03-28T00:45:42.645Z,9.37
2018-03-28T00:47:25.796Z,8.90
2018-03-28T00:49:09.672Z,9.73
2018-03-28T00:50:52.795Z,11.07
2018-03-28T00:52:35.944Z,9.03
2018-03-28T00:54:19.833Z,10.60
2018-03-28T00:56:02.990Z,9.90
2018-03-28T00:57:46.132Z,9.60
2018-03-28T00:59:30.013Z,10.70
2018-03-28T01:01:13.147Z,9.83
2018-03-28T01:02:56.282Z,13.00
2018-03-28T01:04:39.506Z,9.73
2018-03-28T01:06:23.396Z,9.33
2018-03-28T01:08:06.554Z,10.37
2018-03-28T01:09:50.494Z,11.93
2018-03-28T01:11:34.388Z,9.00
2018-03-28T01:13:17.508Z,9.47
2018-03-28T01:15:00.641Z,11.00
2018-03-28T01:16:43.781Z,10.40
2018-03-28T01:18:27.711Z,10.70
2018-03-28T01:20:11.622Z,10.17
2018-03-28T01:21:54.736Z,8.93
2018-03-28T01:23:37.995Z,10.83
2018-03-28T01:25:21.255Z,10.07
2018-03-28T01:27:04.375Z,10.70
2018-03-28T01:28:47.511Z,12.27
2018-03-28T01:30:30.628Z,11.60
2018-03-28T01:32:14.058Z,10.20
2018-03-28T01:33:57.202Z,10.87
2018-03-28T01:35:41.076Z,10.43
2018-03-28T01:37:24.298Z,11.00
2018-03-28T01:39:09.291Z,9.80
2018-03-28T01:40:52.559Z,10.17
2018-03-28T01:42:37.408Z,9.90
2018-03-28T01:44:23.417Z,10.00
2018-03-28T01:46:08.559Z,10.47
2018-03-28T01:47:51.834Z,10.83
2018-03-28T01:49:35.227Z,13.80
2018-03-28T01:51:19.080Z,12.00
2018-03-28T01:53:02.256Z,24.63
2018-03-28T01:54:45.400Z,10.13
2018-03-28T01:56:29.415Z,10.60
2018-03-28T01:58:12.692Z,10.93
2018-03-28T01:59:56.633Z,10.70
2018-03-28T02:01:40.584Z,11.90
2018-03-28T02:03:23.719Z,11.57
2018-03-28T02:05:07.557Z,11.30
2018-03-28T02:06:50.771Z,13.23
2018-03-28T02:08:34.636Z,12.37
2018-03-28T02:10:17.766Z,13.03
2018-03-28T02:12:00.917Z,11.53
2018-03-28T02:13:44.806Z,11.20
2018-03-28T02:15:28.027Z,12.50
2018-03-28T02:17:11.143Z,12.27
2018-03-28T02:18:54.239Z,12.00
2018-03-28T02:20:37.385Z,12.70
2018-03-28T02:22:20.501Z,13.73
2018-03-28T02:24:03.616Z,13.37
2018-03-28T02:25:46.765Z,11.57
2018-03-28T02:27:29.909Z,14.37
2018-03-28T02:29:13.036Z,13.00
2018-03-28T02:30:56.184Z,13.67
2018-03-28T02:32:39.415Z,15.03
2018-03-28T02:34:22.637Z,15.97
2018-03-28T02:36:06.563Z,14.13
2018-03-28T02:37:49.700Z,15.23
2018-03-28T02:39:33.590Z,15.53
2018-03-28T02:41:16.752Z,14.77
2018-03-28T02:43:00.780Z,14.60
2018-03-28T02:44:44.664Z,14.20
2018-03-28T02:46:27.804Z,14.20
2018-03-28T02:48:10.924Z,15.50
2018-03-28T02:49:54.061Z,15.13
2018-03-28T02:51:38.180Z,16.13
2018-03-28T02:53:21.395Z,17.77
2018-03-28T02:55:04.746Z,15.90
2018-03-28T02:56:48.010Z,15.27
2018-03-28T02:58:31.185Z,15.20
2018-03-28T03:00:15.087Z,23.03
2018-03-28T03:01:58.524Z,19.90
2018-03-28T03:03:41.648Z,15.70
2018-03-28T03:05:24.793Z,16.93
2018-03-28T03:07:07.972Z,17.13
2018-03-28T03:08:51.121Z,17.30
2018-03-28T03:10:35.010Z,19.67
2018-03-28T03:12:18.150Z,18.07
2018-03-28T03:14:01.362Z,18.47
2018-03-28T03:15:44.483Z,24.37
2018-03-28T03:17:27.638Z,17.53
2018-03-28T03:19:10.756Z,22.40
2018-03-28T03:20:53.962Z,17.97
2018-03-28T03:22:37.869Z,17.80
2018-03-28T03:24:21.051Z,17.70
2018-03-28T03:26:04.193Z,19.30
2018-03-28T03:27:47.352Z,18.60
2018-03-28T03:29:31.279Z,19.60
2018-03-28T03:31:14.540Z,18.20
2018-03-28T03:32:57.812Z,18.87
2018-03-28T03:34:41.717Z,18.63
2018-03-28T03:36:25.603Z,20.63
2018-03-28T03:38:08.769Z,20.20
2018-03-28T03:39:52.017Z,19.50
2018-03-28T03:41:35.925Z,20.23
2018-03-28T03:43:19.169Z,19.40
2018-03-28T03:45:03.043Z,19.23
2018-03-28T03:46:46.160Z,20.90
2018-03-28T03:48:29.334Z,20.90
2018-03-28T03:50:13.255Z,20.90
2018-03-28T03:51:56.396Z,22.67
2018-03-28T03:53:40.296Z,21.17
2018-03-28T03:55:23.406Z,21.10
2018-03-28T03:57:06.577Z,23.83
2018-03-28T03:58:49.714Z,23.43
2018-03-28T04:00:32.868Z,21.33
2018-03-28T04:02:16.089Z,23.00
2018-03-28T04:03:59.238Z,23.70
2018-03-28T04:05:43.140Z,23.20
2018-03-28T04:07:27.787Z,23.80
2018-03-28T04:09:11.032Z,21.33
2018-03-28T04:10:54.945Z,23.10
2018-03-28T04:12:38.061Z,21.80
2018-03-28T04:14:21.215Z,21.13
2018-03-28T04:16:05.188Z,22.60
2018-03-28T04:17:48.305Z,24.03
2018-03-28T04:19:31.549Z,23.47
2018-03-28T04:21:14.673Z,25.43
2018-03-28T04:22:57.895Z,22.70
2018-03-28T04:24:43.973Z,23.50
2018-03-28T04:26:27.307Z,22.17
2018-03-28T04:28:11.211Z,22.33
2018-03-28T04:29:54.342Z,22.50
2018-03-28T04:31:38.740Z,25.17
2018-03-28T04:33:21.857Z,26.53
2018-03-28T04:35:05.007Z,25.67
2018-03-28T04:36:48.124Z,22.90
2018-03-28T04:38:31.257Z,24.97
2018-03-28T04:40:14.498Z,30.70
2018-03-28T04:41:58.379Z,24.87
2018-03-28T04:43:41.549Z,24.63
2018-03-28T04:45:24.953Z,24.33
2018-03-28T04:47:09.611Z,24.80
2018-03-28T04:48:53.025Z,28.33
2018-03-28T04:50:36.954Z,26.17
2018-03-28T04:52:20.372Z,25.20
2018-03-28T04:54:04.330Z,22.80
2018-03-28T04:55:47.607Z,23.73
2018-03-28T04:57:31.444Z,24.67
2018-03-28T04:59:14.563Z,24.23
2018-03-28T05:00:57.721Z,23.07
2018-03-28T05:02:40.933Z,23.63
2018-03-28T05:04:24.067Z,24.77
2018-03-28T05:06:07.967Z,24.57
2018-03-28T05:07:51.098Z,24.20
2018-03-28T05:09:34.332Z,29.87
2018-03-28T05:11:17.681Z,27.13
2018-03-28T05:13:00.977Z,26.70
2018-03-28T05:14:45.426Z,27.50
2018-03-28T05:16:29.448Z,27.27
2018-03-28T05:18:12.678Z,26.27
2018-03-28T05:19:55.818Z,26.77
2018-03-28T05:21:38.952Z,29.30
2018-03-28T05:23:22.102Z,26.37
2018-03-28T05:25:05.339Z,25.77
2018-03-28T05:26:48.497Z,27.80
2018-03-28T05:28:31.680Z,26.20
2018-03-28T05:30:14.801Z,30.10
2018-03-28T05:31:58.712Z,29.07
2018-03-28T05:33:41.824Z,29.40
2018-03-28T05:35:25.051Z,27.33
2018-03-28T05:37:08.496Z,28.60
2018-03-28T05:38:52.402Z,27.80
2018-03-28T05:40:35.517Z,28.80
2018-03-28T05:42:18.744Z,30.40
2018-03-28T05:44:01.858Z,27.90
2018-03-28T05:45:44.972Z,30.67
2018-03-28T05:47:28.207Z,29.73
2018-03-28T05:49:12.093Z,30.50
2018-03-28T05:50:55.270Z,39.03
2018-03-28T05:52:39.175Z,32.27
2018-03-28T05:54:22.380Z,31.83
2018-03-28T05:56:05.533Z,30.53
2018-03-28T05:57:48.744Z,30.00
2018-03-28T05:59:31.874Z,31.80
2018-03-28T06:01:15.756Z,38.33
2018-03-28T06:02:58.913Z,31.93
2018-03-28T06:04:42.131Z,30.87
2018-03-28T06:06:25.254Z,34.03
2018-03-28T06:08:08.472Z,34.10
2018-03-28T06:09:51.607Z,32.37
2018-03-28T06:11:35.485Z,35.10
2018-03-28T06:13:18.644Z,36.20
2018-03-28T06:15:02.540Z,35.40
2018-03-28T06:16:45.799Z,36.00
2018-03-28T06:18:29.723Z,42.83
2018-03-28T06:20:12.954Z,37.13
2018-03-28T06:21:56.084Z,38.27
2018-03-28T06:23:39.999Z,37.53
2018-03-28T06:25:23.118Z,37.20
2018-03-28T06:27:07.021Z,38.87
2018-03-28T06:28:50.245Z,44.80
2018-03-28T06:30:33.369Z,38.03
2018-03-28T06:32:16.500Z,40.67
2018-03-28T06:33:59.679Z,42.90
2018-03-28T06:35:42.822Z,40.43
2018-03-28T06:37:25.942Z,39.60
2018-03-28T06:39:09.369Z,41.67
2018-03-28T06:40:53.265Z,37.30
2018-03-28T06:42:36.393Z,43.57
2018-03-28T06:44:19.626Z,40.50
2018-03-28T06:46:03.532Z,46.73
2018-03-28T06:47:46.665Z,42.20
2018-03-28T06:49:29.847Z,40.53
2018-03-28T06:51:12.969Z,42.40
2018-03-28T06:52:56.094Z,45.77
2018-03-28T06:54:39.617Z,42.43
2018-03-28T06:56:22.782Z,44.63
2018-03-28T06:58:05.905Z,42.33
2018-03-28T06:59:49.061Z,43.67
2018-03-28T07:01:32.185Z,44.27
2018-03-28T07:03:15.352Z,43.63
2018-03-28T07:04:58.578Z,42.53
2018-03-28T07:06:42.619Z,40.67
2018-03-28T07:08:26.520Z,42.37
2018-03-28T07:10:09.773Z,37.27
2018-03-28T07:11:53.656Z,44.03
2018-03-28T07:13:36.838Z,42.33
2018-03-28T07:15:20.756Z,42.77
2018-03-28T07:17:04.654Z,44.20
2018-03-28T07:18:47.763Z,46.13
2018-03-28T07:20:31.004Z,46.13
2018-03-28T07:22:14.253Z,48.63
2018-03-28T07:23:57.458Z,43.90
2018-03-28T07:25:40.636Z,43.80
2018-03-28T07:27:23.761Z,45.10
2018-03-28T07:29:06.895Z,52.30
2018-03-28T07:30:50.052Z,48.43
2018-03-28T07:32:33.236Z,49.43
2018-03-28T07:34:16.412Z,51.87
2018-03-28T07:35:59.582Z,58.33
2018-03-28T07:37:42.806Z,49.83
2018-03-28T07:39:26.701Z,50.63
2018-03-28T07:41:09.956Z,50.60
2018-03-28T07:42:53.176Z,51.40
2018-03-28T07:44:36.399Z,49.90
2018-03-28T07:46:20.328Z,47.60
2018-03-28T07:48:03.616Z,52.07
2018-03-28T07:49:46.730Z,56.20
2018-03-28T07:51:30.074Z,52.40
2018-03-28T07:53:13.309Z,54.03
2018-03-28T07:54:56.427Z,49.70
2018-03-28T07:56:39.568Z,50.70
2018-03-28T07:58:22.756Z,51.20
2018-03-28T08:00:05.987Z,52.40
2018-03-28T08:01:49.911Z,53.10
2018-03-28T08:03:33.032Z,52.80
2018-03-28T08:05:16.934Z,50.47
2018-03-28T08:07:00.093Z,53.73
2018-03-28T08:08:43.302Z,50.60
2018-03-28T08:10:27.240Z,67.20
2018-03-28T08:12:11.153Z,57.67
2018-03-28T08:13:54.292Z,53.30
2018-03-28T08:15:38.214Z,55.70
2018-03-28T08:17:21.357Z,56.00
2018-03-28T08:19:05.275Z,53.07
2018-03-28T08:20:48.594Z,51.93
2018-03-28T08:22:32.537Z,58.80
2018-03-28T08:24:15.682Z,53.87
2018-03-28T08:25:58.817Z,54.27
2018-03-28T08:27:41.950Z,61.97
2018-03-28T08:29:25.098Z,53.77
2018-03-28T08:31:08.247Z,53.83
2018-03-28T08:32:51.501Z,54.67
2018-03-28T08:34:34.653Z,51.87
2018-03-28T08:36:18.593Z,54.53
2018-03-28T08:38:02.516Z,58.87
2018-03-28T08:39:45.653Z,63.37
2018-03-28T08:41:29.539Z,53.90
2018-03-28T08:43:12.704Z,56.27
2018-03-28T08:44:56.623Z,59.53
2018-03-28T08:46:39.730Z,52.80
2018-03-28T08:48:22.898Z,57.80
2018-03-28T08:50:06.104Z,60.10
2018-03-28T08:51:49.239Z,57.90
2018-03-28T08:53:32.417Z,59.90
2018-03-28T08:55:16.333Z,54.60
2018-03-28T08:56:59.456Z,57.10
2018-03-28T08:58:42.608Z,53.70
2018-03-28T09:00:25.767Z,58.30
2018-03-28T09:02:08.908Z,57.57
2018-03-28T09:03:52.089Z,59.30
2018-03-28T09:05:35.275Z,52.57
2018-03-28T09:07:18.405Z,52.83
2018-03-28T09:09:01.881Z,53.33
2018-03-28T09:10:45.121Z,55.13
2018-03-28T09:12:29.035Z,51.33
2018-03-28T09:14:12.193Z,57.30
2018-03-28T09:15:55.323Z,52.67
2018-03-28T09:17:38.449Z,51.93
2018-03-28T09:19:21.603Z,58.00
2018-03-28T09:21:04.714Z,51.27
2018-03-28T09:22:47.831Z,54.70
2018-03-28T09:24:31.741Z,60.27
2018-03-28T09:26:14.865Z,55.20
2018-03-28T09:27:58.026Z,60.87
2018-03-28T09:29:41.937Z,54.50
2018-03-28T09:31:25.199Z,59.73
2018-03-28T09:33:08.387Z,51.07
2018-03-28T09:34:51.611Z,53.30
2018-03-28T09:36:35.550Z,55.13
2018-03-28T09:38:19.464Z,49.30
2018-03-28T09:40:02.628Z,50.23
2018-03-28T09:41:45.795Z,51.33
2018-03-28T09:43:28.936Z,51.00
2018-03-28T09:45:12.852Z,54.00
2018-03-28T09:46:55.997Z,51.83
2018-03-28T09:48:39.871Z,51.97
2018-03-28T09:50:23.011Z,51.27
2018-03-28T09:52:07.758Z,53.00
2018-03-28T09:53:51.796Z,52.43
2018-03-28T09:55:34.944Z,50.80
2018-03-28T09:57:18.892Z,53.67
2018-03-28T09:59:02.008Z,48.60
2018-03-28T10:00:46.244Z,55.23
2018-03-28T10:02:31.108Z,58.23
2018-03-28T10:04:22.947Z,58.03
2018-03-28T10:06:06.120Z,55.77
2018-03-28T10:07:49.230Z,59.37
2018-03-28T10:09:32.349Z,52.90
2018-03-28T10:11:15.491Z,56.43
2018-03-28T10:12:59.390Z,55.90
2018-03-28T10:14:42.523Z,56.53
2018-03-28T10:16:26.432Z,58.50
2018-03-28T10:18:09.665Z,57.00
2018-03-28T10:19:53.501Z,57.57
2018-03-28T10:21:36.648Z,54.97
2018-03-28T10:23:20.524Z,55.30
2018-03-28T10:25:03.655Z,52.87
2018-03-28T10:26:46.800Z,52.37
2018-03-28T10:28:29.926Z,54.60
2018-03-28T10:30:13.814Z,54.03
2018-03-28T10:31:56.941Z,52.53
2018-03-28T10:33:40.078Z,58.40
2018-03-28T10:35:23.982Z,54.27
2018-03-28T10:37:07.211Z,52.93
2018-03-28T10:38:50.353Z,54.43
2018-03-28T10:40:33.477Z,54.60
2018-03-28T10:42:17.384Z,56.13
2018-03-28T10:44:00.505Z,57.73
2018-03-28T10:45:43.628Z,53.80
2018-03-28T10:47:26.853Z,60.77
2018-03-28T10:49:09.979Z,57.40
2018-03-28T10:50:53.953Z,59.30
2018-03-28T10:52:37.131Z,65.20
2018-03-28T10:54:21.060Z,55.50
2018-03-28T10:56:04.283Z,52.80
2018-03-28T10:57:47.457Z,56.30
2018-03-28T10:59:30.588Z,50.53
2018-03-28T11:01:13.704Z,57.30
2018-03-28T11:02:56.932Z,55.50
2018-03-28T11:04:41.069Z,62.83
2018-03-28T11:06:24.948Z,59.50
2018-03-28T11:08:08.100Z,59.63
2018-03-28T11:09:51.262Z,56.00
2018-03-28T11:11:34.397Z,58.60
2018-03-28T11:13:18.308Z,57.07
2018-03-28T11:15:01.451Z,54.70
2018-03-28T11:16:45.373Z,57.23
2018-03-28T11:18:29.286Z,57.47
2018-03-28T11:20:12.399Z,54.50
2018-03-28T11:21:55.522Z,54.13
2018-03-28T11:23:38.653Z,57.97
2018-03-28T11:25:21.763Z,59.13
2018-03-28T11:27:04.889Z,56.10
2018-03-28T11:28:48.809Z,52.60
2018-03-28T11:30:31.937Z,55.63
2018-03-28T11:32:15.839Z,56.70
2018-03-28T11:33:58.983Z,56.47
2018-03-28T11:35:42.104Z,51.53
2018-03-28T11:37:26.186Z,51.27
2018-03-28T11:39:09.312Z,50.67
2018-03-28T11:40:52.435Z,52.17
2018-03-28T11:42:35.564Z,50.67
2018-03-28T11:44:18.718Z,63.50
2018-03-28T11:46:02.606Z,47.80
2018-03-28T11:47:45.739Z,44.30
2018-03-28T11:49:28.885Z,50.23
2018-03-28T11:51:12.789Z,46.43
2018-03-28T11:52:56.062Z,48.30
2018-03-28T11:54:39.960Z,45.13
2018-03-28T11:56:23.117Z,45.27
2018-03-28T11:58:06.256Z,45.50
2018-03-28T11:59:49.511Z,47.93
2018-03-28T12:01:32.711Z,45.43
2018-03-28T12:03:15.946Z,45.23
2018-03-28T12:04:59.368Z,42.40
2018-03-28T12:06:42.589Z,51.40
2018-03-28T12:08:25.714Z,41.73
2018-03-28T12:10:08.945Z,41.30
2018-03-28T12:11:52.139Z,47.20
2018-03-28T12:13:35.363Z,37.87
2018-03-28T12:15:18.508Z,40.17
2018-03-28T12:17:01.636Z,40.87
2018-03-28T12:18:44.745Z,38.47
2018-03-28T12:20:27.891Z,37.23
2018-03-28T12:22:11.007Z,40.97
2018-03-28T12:23:54.316Z,39.70
2018-03-28T12:25:37.451Z,41.13
2018-03-28T12:27:20.604Z,40.27
2018-03-28T12:29:03.741Z,41.40
2018-03-28T12:30:47.650Z,38.03
2018-03-28T12:32:30.788Z,37.97
2018-03-28T12:34:14.685Z,38.93
2018-03-28T12:35:57.842Z,39.97
2018-03-28T12:37:41.720Z,40.20
2018-03-28T12:39:24.923Z,35.30
2018-03-28T12:41:08.074Z,38.30
2018-03-28T12:42:51.234Z,38.27
2018-03-28T12:44:34.331Z,37.50
2018-03-28T12:46:18.556Z,39.07
2018-03-28T12:48:01.675Z,37.60
2018-03-28T12:49:44.822Z,37.20
2018-03-28T12:51:28.724Z,40.60
2018-03-28T12:53:11.841Z,35.73
2018-03-28T12:54:55.673Z,38.50
2018-03-28T12:56:38.894Z,37.20
2018-03-28T12:58:22.121Z,39.63
2018-03-28T13:00:05.234Z,38.83
2018-03-28T13:01:48.424Z,39.10
2018-03-28T13:03:31.556Z,36.07
2018-03-28T13:05:14.844Z,41.33
2018-03-28T13:06:58.723Z,36.27
2018-03-28T13:08:41.942Z,38.00
2018-03-28T13:10:25.058Z,38.37
2018-03-28T13:12:08.288Z,39.50
2018-03-28T13:13:51.464Z,38.03
2018-03-28T13:15:34.621Z,39.97
2018-03-28T13:17:18.577Z,37.67
2018-03-28T13:19:01.775Z,38.80
2018-03-28T13:20:44.879Z,39.33
2018-03-28T13:22:28.044Z,37.33
2018-03-28T13:24:11.169Z,40.20
2018-03-28T13:25:54.316Z,41.07
2018-03-28T13:27:37.460Z,35.80
2018-03-28T13:29:21.376Z,37.73
2018-03-28T13:31:04.512Z,37.57
2018-03-28T13:32:48.409Z,37.17
2018-03-28T13:34:31.523Z,38.83
2018-03-28T13:36:14.680Z,37.20
2018-03-28T13:37:57.791Z,41.37
2018-03-28T13:39:41.748Z,36.40
2018-03-28T13:41:25.109Z,36.63
2018-03-28T13:43:08.340Z,35.40
2018-03-28T13:44:51.563Z,33.50
2018-03-28T13:46:34.685Z,35.77
2018-03-28T13:48:17.804Z,32.23
2018-03-28T13:50:00.913Z,35.00
2018-03-28T13:51:44.069Z,35.40
2018-03-28T13:53:27.962Z,35.83
2018-03-28T13:55:12.591Z,33.30
2018-03-28T13:56:56.664Z,32.10
2018-03-28T13:58:39.815Z,35.80
2018-03-28T14:00:22.938Z,34.63
2018-03-28T14:02:06.130Z,33.83
2018-03-28T14:03:50.043Z,37.70
2018-03-28T14:05:33.161Z,36.47
2018-03-28T14:07:16.394Z,33.53
2018-03-28T14:08:59.614Z,34.30
2018-03-28T14:10:42.730Z,32.33
2018-03-28T14:12:25.949Z,32.20
2018-03-28T14:14:09.103Z,35.97
2018-03-28T14:15:52.285Z,35.07
2018-03-28T14:17:35.408Z,35.27
2018-03-28T14:19:19.622Z,32.80
2018-03-28T14:21:02.733Z,36.80
2018-03-28T14:22:45.859Z,33.90
2018-03-28T14:24:28.995Z,29.37
2018-03-28T14:26:13.134Z,30.87
2018-03-28T14:27:56.256Z,30.47
2018-03-28T14:29:40.290Z,30.30
2018-03-28T14:31:24.180Z,33.23
2018-03-28T14:33:07.315Z,32.10
2018-03-28T14:34:50.536Z,29.57
2018-03-28T14:36:33.756Z,35.17
2018-03-28T14:38:18.312Z,28.50
2018-03-28T14:40:02.871Z,31.90
2018-03-28T14:41:46.787Z,31.53
2018-03-28T14:43:29.924Z,30.80
2018-03-28T14:45:13.193Z,30.80
2018-03-28T14:46:57.153Z,32.60
2018-03-28T14:48:40.289Z,34.07
2018-03-28T14:50:23.435Z,34.40
2018-03-28T14:52:07.344Z,30.77
2018-03-28T14:53:50.448Z,30.53
2018-03-28T14:55:33.683Z,32.83
2018-03-28T14:57:18.008Z,32.07
2018-03-28T14:59:01.131Z,30.50
2018-03-28T15:00:44.284Z,31.57
2018-03-28T15:02:28.190Z,27.80
2018-03-28T15:04:11.451Z,29.20
2018-03-28T15:05:54.598Z,30.70
2018-03-28T15:07:37.744Z,32.70
2018-03-28T15:09:20.876Z,27.87
2018-03-28T15:11:04.793Z,32.80
2018-03-28T15:12:47.929Z,33.50
2018-03-28T15:14:31.164Z,33.27
2018-03-28T15:16:14.354Z,32.70
2018-03-28T15:17:57.480Z,30.30
2018-03-28T15:19:41.360Z,24.93
2018-03-28T15:21:24.605Z,28.07
2018-03-28T15:23:07.758Z,32.23
2018-03-28T15:24:51.637Z,30.83
2018-03-28T15:26:35.625Z,29.30
2018-03-28T15:28:19.526Z,29.30
2018-03-28T15:30:02.762Z,30.13
2018-03-28T15:31:46.180Z,31.60
2018-03-28T15:33:29.330Z,32.13
2018-03-28T15:35:13.245Z,30.23
2018-03-28T15:36:56.414Z,31.53
2018-03-28T15:38:39.584Z,34.27
2018-03-28T15:40:22.710Z,31.00
2018-03-28T15:42:06.657Z,32.60
2018-03-28T15:43:49.829Z,31.17
2018-03-28T15:45:32.948Z,29.73
2018-03-28T15:47:16.106Z,31.00
2018-03-28T15:48:59.214Z,31.60
2018-03-28T15:50:43.112Z,33.90
2018-03-28T15:52:26.273Z,32.67
2018-03-28T15:54:10.164Z,29.83
2018-03-28T15:55:53.281Z,33.87
2018-03-28T15:57:36.437Z,32.30
2018-03-28T15:59:20.324Z,33.17
2018-03-28T16:01:03.445Z,31.00
2018-03-28T16:02:46.576Z,29.93
2018-03-28T16:04:29.720Z,32.73
2018-03-28T16:06:13.615Z,30.77
2018-03-28T16:07:56.761Z,29.23
2018-03-28T16:09:40.692Z,33.67
2018-03-28T16:11:23.806Z,30.70
2018-03-28T16:13:06.981Z,32.03
2018-03-28T16:14:50.115Z,30.33
2018-03-28T16:16:33.269Z,33.47
2018-03-28T16:18:17.168Z,33.73
2018-03-28T16:20:00.304Z,32.00
2018-03-28T16:21:43.420Z,32.67
2018-03-28T16:23:26.577Z,34.00
2018-03-28T16:25:09.701Z,30.50
2018-03-28T16:26:52.845Z,32.33
2018-03-28T16:28:36.002Z,32.50
2018-03-28T16:30:19.889Z,34.40
2018-03-28T16:32:03.019Z,30.47
2018-03-28T16:33:46.161Z,32.10
2018-03-28T16:35:29.283Z,34.30
2018-03-28T16:37:13.183Z,33.80
2018-03-28T16:38:56.504Z,35.00
2018-03-28T16:40:39.623Z,32.73
2018-03-28T16:42:24.417Z,30.47
2018-03-28T16:44:08.980Z,36.30
2018-03-28T16:45:53.458Z,35.37
2018-03-28T16:47:37.936Z,34.33
2018-03-28T16:49:23.701Z,32.77
2018-03-28T16:51:08.173Z,36.10
2018-03-28T16:52:52.641Z,33.40
2018-03-28T16:54:37.195Z,34.03
2018-03-28T16:56:21.682Z,34.30
2018-03-28T16:58:06.189Z,35.23
2018-03-28T16:59:52.917Z,35.20
2018-03-28T17:01:37.715Z,36.40
2018-03-28T17:03:22.442Z,33.43
2018-03-28T17:05:07.550Z,35.77
2018-03-28T17:06:52.320Z,36.83
2018-03-28T17:08:37.100Z,34.63
2018-03-28T17:10:21.912Z,36.60
2018-03-28T17:12:06.689Z,35.67
2018-03-28T17:13:51.458Z,33.33
2018-03-28T17:15:36.260Z,35.73
2018-03-28T17:17:21.050Z,36.90
2018-03-28T17:19:05.827Z,37.37
2018-03-28T17:20:50.644Z,34.30
2018-03-28T17:22:35.428Z,35.30
2018-03-28T17:24:20.212Z,33.77
2018-03-28T17:26:05.016Z,38.30
2018-03-28T17:27:49.789Z,34.17
2018-03-28T17:29:34.561Z,35.33
2018-03-28T17:31:19.367Z,37.50
2018-03-28T17:33:04.129Z,36.03
2018-03-28T17:34:48.910Z,36.93
2018-03-28T17:36:33.716Z,35.80
2018-03-28T17:38:18.485Z,37.47
2018-03-28T17:40:03.272Z,36.53
2018-03-28T17:41:48.108Z,37.90
2018-03-28T17:43:32.874Z,37.70
2018-03-28T17:45:17.637Z,38.20
2018-03-28T17:47:02.432Z,38.13
2018-03-28T17:48:47.258Z,36.73
2018-03-28T17:50:32.036Z,37.17
2018-03-28T17:52:16.838Z,32.40
2018-03-28T17:54:01.633Z,37.10
2018-03-28T17:55:46.416Z,36.60
2018-03-28T17:57:31.206Z,38.63
2018-03-28T17:59:15.987Z,40.37
2018-03-28T18:01:00.751Z,38.63
2018-03-28T18:02:45.891Z,37.63
2018-03-28T18:04:30.706Z,35.23
2018-03-28T18:06:15.504Z,40.97
2018-03-28T18:08:00.486Z,37.03
2018-03-28T18:09:45.416Z,38.43
2018-03-28T18:11:30.207Z,34.80
2018-03-28T18:13:15.004Z,39.50
2018-03-28T18:14:59.777Z,39.63
2018-03-28T18:16:44.565Z,38.97
2018-03-28T18:18:29.385Z,37.50
2018-03-28T18:20:14.202Z,40.53
2018-03-28T18:21:58.971Z,39.77
2018-03-28T18:23:43.788Z,41.07
2018-03-28T18:25:28.562Z,42.10
2018-03-28T18:27:13.336Z,38.67
2018-03-28T18:28:58.132Z,42.00
2018-03-28T18:30:42.919Z,43.57
2018-03-28T18:32:27.698Z,40.43
2018-03-28T18:34:12.500Z,44.80
2018-03-28T18:35:57.273Z,39.70
2018-03-28T18:37:42.052Z,44.10
2018-03-28T18:39:26.857Z,40.63
2018-03-28T18:41:11.640Z,42.57
2018-03-28T18:42:56.422Z,41.73
2018-03-28T18:44:41.522Z,40.03
2018-03-28T18:46:26.307Z,42.27
2018-03-28T18:48:11.105Z,44.80
2018-03-28T18:49:55.890Z,40.03
2018-03-28T18:51:40.669Z,45.10
2018-03-28T18:53:25.467Z,43.80
2018-03-28T18:55:10.269Z,46.13
2018-03-28T18:56:55.045Z,41.43
2018-03-28T18:58:39.824Z,46.27
2018-03-28T19:00:24.609Z,43.30
2018-03-28T19:02:09.394Z,44.17
2018-03-28T19:03:54.228Z,48.57
2018-03-28T19:05:39.028Z,42.53
2018-03-28T19:07:23.821Z,43.03
2018-03-28T19:09:08.621Z,47.03
2018-03-28T19:10:53.413Z,45.97
2018-03-28T19:12:39.102Z,47.20
2018-03-28T19:14:23.999Z,44.50
2018-03-28T19:16:08.863Z,40.97
2018-03-28T19:17:53.635Z,45.80
2018-03-28T19:19:38.413Z,40.57
2018-03-28T19:21:23.195Z,45.97
2018-03-28T19:23:07.968Z,47.10
2018-03-28T19:24:53.053Z,46.10
2018-03-28T19:26:37.854Z,47.43
2018-03-28T19:28:22.725Z,45.30
2018-03-28T19:30:07.503Z,46.37
2018-03-28T19:31:52.311Z,43.90
2018-03-28T19:33:37.098Z,42.60
2018-03-28T19:35:21.896Z,44.77
2018-03-28T19:37:06.713Z,48.50
2018-03-28T19:38:51.511Z,48.43
2018-03-28T19:40:36.320Z,51.00
2018-03-28T19:42:21.105Z,45.60
2018-03-28T19:44:05.892Z,46.10
2018-03-28T19:45:50.690Z,49.43
2018-03-28T19:47:35.531Z,51.40
2018-03-28T19:49:20.303Z,49.30
2018-03-28T19:51:05.126Z,51.90
2018-03-28T19:52:49.917Z,50.83
2018-03-28T19:54:34.737Z,51.93
2018-03-28T19:56:19.546Z,47.43
2018-03-28T19:58:04.337Z,55.80
2018-03-28T19:59:49.129Z,52.17
2018-03-28T20:01:33.955Z,50.17
2018-03-28T20:03:18.766Z,55.47
2018-03-28T20:05:03.590Z,52.93
2018-03-28T20:06:48.388Z,55.00
2018-03-28T20:08:33.177Z,55.33
2018-03-28T20:10:17.959Z,55.50
2018-03-28T20:12:02.743Z,57.13
2018-03-28T20:13:47.546Z,49.60
2018-03-28T20:15:32.345Z,53.87
2018-03-28T20:17:17.134Z,59.70
2018-03-28T20:19:01.919Z,52.10
2018-03-28T20:20:46.703Z,61.27
2018-03-28T20:22:31.521Z,61.20
2018-03-28T20:24:16.315Z,57.77
2018-03-28T20:26:01.105Z,64.70
2018-03-28T20:27:45.900Z,58.57
2018-03-28T20:29:30.696Z,62.43
2018-03-28T20:31:15.485Z,65.53
2018-03-28T20:33:00.293Z,66.03
2018-03-28T20:34:45.096Z,72.27
2018-03-28T20:36:29.894Z,59.00
2018-03-28T20:38:14.700Z,62.37
2018-03-28T20:39:59.491Z,68.37
2018-03-28T20:41:44.276Z,66.60
2018-03-28T20:43:29.075Z,63.33
2018-03-28T20:45:13.853Z,66.97
2018-03-28T20:46:58.660Z,71.57
2018-03-28T20:48:43.450Z,63.83
2018-03-28T20:50:28.239Z,66.80
2018-03-28T20:52:13.053Z,73.70
2018-03-28T20:53:57.832Z,61.57
2018-03-28T20:55:42.610Z,71.33
2018-03-28T20:57:27.418Z,66.30
2018-03-28T20:59:12.196Z,61.33
2018-03-28T21:00:56.995Z,72.60
2018-03-28T21:02:41.816Z,73.87
2018-03-28T21:04:26.625Z,57.93
2018-03-28T21:06:11.412Z,58.50
2018-03-28T21:07:56.229Z,70.33
2018-03-28T21:09:41.027Z,65.00
2018-03-28T21:11:25.831Z,70.73
2018-03-28T21:13:10.651Z,63.70
2018-03-28T21:14:55.444Z,70.67
2018-03-28T21:16:40.264Z,67.63
2018-03-28T21:18:25.067Z,69.63
2018-03-28T21:20:09.870Z,66.87
2018-03-28T21:21:54.672Z,71.00
2018-03-28T21:23:39.473Z,70.17
2018-03-28T21:25:24.298Z,66.37
2018-03-28T21:27:09.083Z,62.17
2018-03-28T21:28:53.901Z,65.23
2018-03-28T21:30:38.712Z,69.70
2018-03-28T21:32:23.537Z,55.37
2018-03-28T21:34:08.331Z,68.13
2018-03-28T21:35:53.123Z,64.77
2018-03-28T21:37:37.896Z,69.67
2018-03-28T21:39:22.693Z,70.80
2018-03-28T21:41:07.530Z,61.60
2018-03-28T21:42:52.325Z,65.93
2018-03-28T21:44:37.120Z,60.63
2018-03-28T21:46:21.927Z,57.17
2018-03-28T21:48:06.698Z,61.63
2018-03-28T21:49:51.496Z,61.77
2018-03-28T21:51:36.286Z,57.67
2018-03-28T21:53:21.109Z,58.77
2018-03-28T21:55:05.902Z,62.37
2018-03-28T21:56:50.683Z,62.10
2018-03-28T21:58:35.481Z,54.10
2018-03-28T22:00:20.277Z,52.00
2018-03-28T22:02:05.059Z,56.23
2018-03-28T22:03:49.851Z,58.30
2018-03-28T22:05:34.642Z,55.93
2018-03-28T22:07:19.429Z,51.73
2018-03-28T22:09:04.227Z,57.67
2018-03-28T22:10:49.002Z,54.27
2018-03-28T22:12:33.778Z,55.50
2018-03-28T22:14:18.574Z,52.07
2018-03-28T22:16:03.348Z,53.60
2018-03-28T22:17:48.132Z,47.43